sensor_id;sensor_type;location;lat;lon;timestamp;P1;durP1;ratioP1;P2;durP2;ratioP2
25950;SDS011;13748;52.240;6.002;2023-04-24T00:01:13;3.20;;;2.67;;
25950;SDS011;13748;52.240;6.002;2023-04-24T00:03:41;3.90;;;3.30;;
25950;SDS011;13748;52.240;6.002;2023-04-24T00:06:08;5.27;;;3.40;;
25950;SDS011;13748;52.240;6.002;2023-04-24T00:08:35;4.13;;;3.70;;
25950;SDS011;13748;52.240;6.002;2023-04-24T00:11:02;6.00;;;3.80;;
25950;SDS011;13748;52.240;6.002;2023-04-24T00:13:29;4.23;;;3.33;;
25950;SDS011;13748;52.240;6.002;2023-04-24T00:15:56;5.50;;;3.97;;
25950;SDS011;13748;52.240;6.002;2023-04-24T00:18:22;5.10;;;3.57;;
25950;SDS011;13748;52.240;6.002;2023-04-24T00:20:49;5.03;;;3.93;;
25950;SDS011;13748;52.240;6.002;2023-04-24T00:23:16;4.47;;;3.57;;
25950;SDS011;13748;52.240;6.002;2023-04-24T00:25:42;6.43;;;3.93;;
25950;SDS011;13748;52.240;6.002;2023-04-24T00:28:09;7.87;;;4.13;;
25950;SDS011;13748;52.240;6.002;2023-04-24T00:30:36;4.50;;;3.63;;
25950;SDS011;13748;52.240;6.002;2023-04-24T00:33:03;5.40;;;4.30;;
25950;SDS011;13748;52.240;6.002;2023-04-24T00:35:30;6.47;;;5.63;;
25950;SDS011;13748;52.240;6.002;2023-04-24T00:37:56;6.57;;;4.90;;
25950;SDS011;13748;52.240;6.002;2023-04-24T00:40:23;4.80;;;4.30;;
25950;SDS011;13748;52.240;6.002;2023-04-24T00:42:50;5.43;;;4.57;;
25950;SDS011;13748;52.240;6.002;2023-04-24T00:45:17;8.37;;;5.00;;
25950;SDS011;13748;52.240;6.002;2023-04-24T00:47:43;5.97;;;5.00;;
25950;SDS011;13748;52.240;6.002;2023-04-24T00:50:12;7.47;;;5.47;;
25950;SDS011;13748;52.240;6.002;2023-04-24T00:52:41;9.47;;;5.40;;
25950;SDS011;13748;52.240;6.002;2023-04-24T00:55:08;6.97;;;5.17;;
25950;SDS011;13748;52.240;6.002;2023-04-24T00:57:35;6.90;;;5.40;;
25950;SDS011;13748;52.240;6.002;2023-04-24T01:00:02;7.03;;;5.60;;
25950;SDS011;13748;52.240;6.002;2023-04-24T01:02:32;7.93;;;5.20;;
25950;SDS011;13748;52.240;6.002;2023-04-24T01:05:01;6.53;;;5.67;;
25950;SDS011;13748;52.240;6.002;2023-04-24T01:07:28;9.20;;;5.73;;
25950;SDS011;13748;52.240;6.002;2023-04-24T01:09:55;6.07;;;5.47;;
25950;SDS011;13748;52.240;6.002;2023-04-24T01:12:22;8.00;;;5.03;;
25950;SDS011;13748;52.240;6.002;2023-04-24T01:14:49;5.67;;;5.17;;
25950;SDS011;13748;52.240;6.002;2023-04-24T01:17:25;6.43;;;5.70;;
25950;SDS011;13748;52.240;6.002;2023-04-24T01:19:52;6.23;;;5.27;;
25950;SDS011;13748;52.240;6.002;2023-04-24T01:22:19;5.20;;;4.70;;
25950;SDS011;13748;52.240;6.002;2023-04-24T01:24:48;5.50;;;4.90;;
25950;SDS011;13748;52.240;6.002;2023-04-24T01:27:15;5.60;;;5.10;;
25950;SDS011;13748;52.240;6.002;2023-04-24T01:29:42;6.10;;;4.87;;
25950;SDS011;13748;52.240;6.002;2023-04-24T01:32:09;5.77;;;4.60;;
25950;SDS011;13748;52.240;6.002;2023-04-24T01:34:37;6.03;;;5.10;;
25950;SDS011;13748;52.240;6.002;2023-04-24T01:37:04;5.90;;;5.00;;
25950;SDS011;13748;52.240;6.002;2023-04-24T01:39:31;7.03;;;5.20;;
25950;SDS011;13748;52.240;6.002;2023-04-24T01:41:59;7.23;;;5.30;;
25950;SDS011;13748;52.240;6.002;2023-04-24T01:44:30;5.97;;;5.37;;
25950;SDS011;13748;52.240;6.002;2023-04-24T01:47:00;8.67;;;5.80;;
25950;SDS011;13748;52.240;6.002;2023-04-24T01:49:27;7.30;;;5.73;;
25950;SDS011;13748;52.240;6.002;2023-04-24T01:51:54;10.70;;;6.47;;
25950;SDS011;13748;52.240;6.002;2023-04-24T01:54:21;7.20;;;6.47;;
25950;SDS011;13748;52.240;6.002;2023-04-24T01:56:47;8.43;;;6.13;;
25950;SDS011;13748;52.240;6.002;2023-04-24T01:59:14;7.83;;;6.80;;
25950;SDS011;13748;52.240;6.002;2023-04-24T02:01:43;8.10;;;6.57;;
25950;SDS011;13748;52.240;6.002;2023-04-24T02:04:09;8.50;;;7.40;;
25950;SDS011;13748;52.240;6.002;2023-04-24T02:06:36;11.07;;;7.20;;
25950;SDS011;13748;52.240;6.002;2023-04-24T02:09:03;10.23;;;7.70;;
25950;SDS011;13748;52.240;6.002;2023-04-24T02:11:40;8.53;;;7.17;;
25950;SDS011;13748;52.240;6.002;2023-04-24T02:14:10;7.87;;;7.07;;
25950;SDS011;13748;52.240;6.002;2023-04-24T02:16:37;9.00;;;7.33;;
25950;SDS011;13748;52.240;6.002;2023-04-24T02:19:04;9.70;;;7.37;;
25950;SDS011;13748;52.240;6.002;2023-04-24T02:21:31;8.53;;;7.33;;
25950;SDS011;13748;52.240;6.002;2023-04-24T02:23:57;8.30;;;7.37;;
25950;SDS011;13748;52.240;6.002;2023-04-24T02:26:25;9.13;;;6.87;;
25950;SDS011;13748;52.240;6.002;2023-04-24T02:28:52;11.63;;;7.90;;
25950;SDS011;13748;52.240;6.002;2023-04-24T02:31:19;10.20;;;7.77;;
25950;SDS011;13748;52.240;6.002;2023-04-24T02:33:46;10.47;;;8.07;;
25950;SDS011;13748;52.240;6.002;2023-04-24T02:36:12;10.03;;;7.80;;
25950;SDS011;13748;52.240;6.002;2023-04-24T02:38:40;10.60;;;8.03;;
25950;SDS011;13748;52.240;6.002;2023-04-24T02:41:06;13.60;;;9.07;;
25950;SDS011;13748;52.240;6.002;2023-04-24T02:43:33;12.23;;;9.43;;
25950;SDS011;13748;52.240;6.002;2023-04-24T02:46:00;11.33;;;8.90;;
25950;SDS011;13748;52.240;6.002;2023-04-24T02:48:27;11.40;;;8.57;;
25950;SDS011;13748;52.240;6.002;2023-04-24T02:50:55;10.90;;;8.97;;
25950;SDS011;13748;52.240;6.002;2023-04-24T02:53:22;9.07;;;7.73;;
25950;SDS011;13748;52.240;6.002;2023-04-24T02:55:49;9.03;;;7.80;;
25950;SDS011;13748;52.240;6.002;2023-04-24T02:58:16;7.57;;;6.40;;
25950;SDS011;13748;52.240;6.002;2023-04-24T03:00:43;11.57;;;6.93;;
25950;SDS011;13748;52.240;6.002;2023-04-24T03:03:10;6.60;;;5.30;;
25950;SDS011;13748;52.240;6.002;2023-04-24T03:05:37;6.37;;;4.67;;
25950;SDS011;13748;52.240;6.002;2023-04-24T03:08:03;5.37;;;4.27;;
25950;SDS011;13748;52.240;6.002;2023-04-24T03:10:31;4.73;;;4.10;;
25950;SDS011;13748;52.240;6.002;2023-04-24T03:12:58;4.97;;;4.30;;
25950;SDS011;13748;52.240;6.002;2023-04-24T03:15:25;8.43;;;4.57;;
25950;SDS011;13748;52.240;6.002;2023-04-24T03:17:52;7.13;;;5.80;;
25950;SDS011;13748;52.240;6.002;2023-04-24T03:20:21;8.60;;;6.47;;
25950;SDS011;13748;52.240;6.002;2023-04-24T03:22:48;7.07;;;5.70;;
25950;SDS011;13748;52.240;6.002;2023-04-24T03:25:15;7.57;;;6.77;;
25950;SDS011;13748;52.240;6.002;2023-04-24T03:27:42;8.60;;;7.03;;
25950;SDS011;13748;52.240;6.002;2023-04-24T03:30:09;9.40;;;5.97;;
25950;SDS011;13748;52.240;6.002;2023-04-24T03:32:36;9.57;;;6.77;;
25950;SDS011;13748;52.240;6.002;2023-04-24T03:35:06;8.83;;;6.47;;
25950;SDS011;13748;52.240;6.002;2023-04-24T03:37:34;11.40;;;7.17;;
25950;SDS011;13748;52.240;6.002;2023-04-24T03:40:01;7.67;;;6.27;;
25950;SDS011;13748;52.240;6.002;2023-04-24T03:42:28;8.63;;;6.73;;
25950;SDS011;13748;52.240;6.002;2023-04-24T03:44:55;7.77;;;6.43;;
25950;SDS011;13748;52.240;6.002;2023-04-24T03:47:21;11.20;;;8.07;;
25950;SDS011;13748;52.240;6.002;2023-04-24T03:49:48;8.03;;;6.30;;
25950;SDS011;13748;52.240;6.002;2023-04-24T03:52:15;9.57;;;6.33;;
25950;SDS011;13748;52.240;6.002;2023-04-24T03:54:42;9.37;;;7.10;;
25950;SDS011;13748;52.240;6.002;2023-04-24T03:57:08;8.43;;;6.73;;
25950;SDS011;13748;52.240;6.002;2023-04-24T03:59:35;8.90;;;6.70;;
25950;SDS011;13748;52.240;6.002;2023-04-24T04:02:02;8.17;;;5.83;;
25950;SDS011;13748;52.240;6.002;2023-04-24T04:04:29;7.53;;;5.67;;
25950;SDS011;13748;52.240;6.002;2023-04-24T04:06:56;6.17;;;4.87;;
25950;SDS011;13748;52.240;6.002;2023-04-24T04:09:22;6.37;;;4.93;;
25950;SDS011;13748;52.240;6.002;2023-04-24T04:11:50;6.00;;;4.40;;
25950;SDS011;13748;52.240;6.002;2023-04-24T04:14:17;5.67;;;4.30;;
25950;SDS011;13748;52.240;6.002;2023-04-24T04:16:44;5.23;;;4.10;;
25950;SDS011;13748;52.240;6.002;2023-04-24T04:19:10;7.83;;;3.87;;
25950;SDS011;13748;52.240;6.002;2023-04-24T04:21:37;5.33;;;3.63;;
25950;SDS011;13748;52.240;6.002;2023-04-24T04:24:04;4.63;;;3.67;;
25950;SDS011;13748;52.240;6.002;2023-04-24T04:26:32;4.77;;;3.53;;
25950;SDS011;13748;52.240;6.002;2023-04-24T04:28:59;3.90;;;3.00;;
25950;SDS011;13748;52.240;6.002;2023-04-24T04:31:29;4.63;;;3.67;;
25950;SDS011;13748;52.240;6.002;2023-04-24T04:33:56;4.83;;;3.47;;
25950;SDS011;13748;52.240;6.002;2023-04-24T04:36:23;4.27;;;3.57;;
25950;SDS011;13748;52.240;6.002;2023-04-24T04:38:50;5.53;;;4.20;;
25950;SDS011;13748;52.240;6.002;2023-04-24T04:41:17;6.13;;;4.13;;
25950;SDS011;13748;52.240;6.002;2023-04-24T04:43:44;5.83;;;4.20;;
25950;SDS011;13748;52.240;6.002;2023-04-24T04:46:12;5.83;;;4.23;;
25950;SDS011;13748;52.240;6.002;2023-04-24T04:48:39;7.07;;;4.70;;
25950;SDS011;13748;52.240;6.002;2023-04-24T04:51:06;7.20;;;4.93;;
25950;SDS011;13748;52.240;6.002;2023-04-24T04:53:33;6.73;;;4.60;;
25950;SDS011;13748;52.240;6.002;2023-04-24T04:56:00;6.33;;;4.90;;
25950;SDS011;13748;52.240;6.002;2023-04-24T04:58:26;5.33;;;4.67;;
25950;SDS011;13748;52.240;6.002;2023-04-24T05:00:59;5.33;;;4.70;;
25950;SDS011;13748;52.240;6.002;2023-04-24T05:03:26;4.73;;;4.23;;
25950;SDS011;13748;52.240;6.002;2023-04-24T05:05:53;5.97;;;4.73;;
25950;SDS011;13748;52.240;6.002;2023-04-24T05:08:20;5.47;;;4.60;;
25950;SDS011;13748;52.240;6.002;2023-04-24T05:10:52;6.13;;;4.73;;
25950;SDS011;13748;52.240;6.002;2023-04-24T05:13:19;6.20;;;3.73;;
25950;SDS011;13748;52.240;6.002;2023-04-24T05:15:57;6.67;;;4.10;;
25950;SDS011;13748;52.240;6.002;2023-04-24T05:18:24;4.63;;;4.00;;
25950;SDS011;13748;52.240;6.002;2023-04-24T05:20:51;5.07;;;3.80;;
25950;SDS011;13748;52.240;6.002;2023-04-24T05:23:17;4.20;;;3.03;;
25950;SDS011;13748;52.240;6.002;2023-04-24T05:25:44;3.07;;;2.80;;
25950;SDS011;13748;52.240;6.002;2023-04-24T05:28:12;2.97;;;1.90;;
25950;SDS011;13748;52.240;6.002;2023-04-24T05:30:39;3.20;;;2.70;;
25950;SDS011;13748;52.240;6.002;2023-04-24T05:33:06;3.37;;;2.63;;
25950;SDS011;13748;52.240;6.002;2023-04-24T05:35:34;2.63;;;2.43;;
25950;SDS011;13748;52.240;6.002;2023-04-24T05:38:01;2.10;;;1.73;;
25950;SDS011;13748;52.240;6.002;2023-04-24T05:40:28;2.93;;;1.70;;
25950;SDS011;13748;52.240;6.002;2023-04-24T05:42:54;2.17;;;1.50;;
25950;SDS011;13748;52.240;6.002;2023-04-24T05:45:21;2.13;;;1.50;;
25950;SDS011;13748;52.240;6.002;2023-04-24T05:47:48;1.73;;;1.30;;
25950;SDS011;13748;52.240;6.002;2023-04-24T05:50:28;1.13;;;1.13;;
25950;SDS011;13748;52.240;6.002;2023-04-24T05:53:04;2.40;;;1.30;;
25950;SDS011;13748;52.240;6.002;2023-04-24T05:55:33;1.50;;;1.40;;
25950;SDS011;13748;52.240;6.002;2023-04-24T05:58:00;1.90;;;1.40;;
25950;SDS011;13748;52.240;6.002;2023-04-24T06:00:27;1.70;;;1.60;;
25950;SDS011;13748;52.240;6.002;2023-04-24T06:02:54;1.90;;;1.70;;
25950;SDS011;13748;52.240;6.002;2023-04-24T06:05:22;2.43;;;1.80;;
25950;SDS011;13748;52.240;6.002;2023-04-24T06:07:49;2.90;;;2.00;;
25950;SDS011;13748;52.240;6.002;2023-04-24T06:10:16;4.43;;;2.60;;
25950;SDS011;13748;52.240;6.002;2023-04-24T06:12:42;3.77;;;2.50;;
25950;SDS011;13748;52.240;6.002;2023-04-24T06:15:09;4.60;;;2.50;;
25950;SDS011;13748;52.240;6.002;2023-04-24T06:17:36;3.27;;;2.80;;
25950;SDS011;13748;52.240;6.002;2023-04-24T06:20:03;3.10;;;2.60;;
25950;SDS011;13748;52.240;6.002;2023-04-24T06:22:31;3.80;;;2.90;;
25950;SDS011;13748;52.240;6.002;2023-04-24T06:24:59;6.43;;;3.00;;
25950;SDS011;13748;52.240;6.002;2023-04-24T06:27:26;4.70;;;2.90;;
25950;SDS011;13748;52.240;6.002;2023-04-24T06:29:53;4.27;;;3.00;;
25950;SDS011;13748;52.240;6.002;2023-04-24T06:32:22;4.37;;;3.10;;
25950;SDS011;13748;52.240;6.002;2023-04-24T06:34:51;5.67;;;3.80;;
25950;SDS011;13748;52.240;6.002;2023-04-24T06:37:18;5.43;;;3.43;;
25950;SDS011;13748;52.240;6.002;2023-04-24T06:39:49;5.03;;;3.33;;
25950;SDS011;13748;52.240;6.002;2023-04-24T06:42:15;6.53;;;4.50;;
25950;SDS011;13748;52.240;6.002;2023-04-24T06:44:42;6.10;;;4.00;;
25950;SDS011;13748;52.240;6.002;2023-04-24T06:47:09;6.23;;;4.20;;
25950;SDS011;13748;52.240;6.002;2023-04-24T06:49:36;5.20;;;4.20;;
25950;SDS011;13748;52.240;6.002;2023-04-24T06:52:04;10.60;;;4.93;;
25950;SDS011;13748;52.240;6.002;2023-04-24T06:54:30;6.80;;;4.63;;
25950;SDS011;13748;52.240;6.002;2023-04-24T06:56:58;6.93;;;4.90;;
25950;SDS011;13748;52.240;6.002;2023-04-24T06:59:26;7.50;;;4.87;;
25950;SDS011;13748;52.240;6.002;2023-04-24T07:01:54;8.33;;;5.20;;
25950;SDS011;13748;52.240;6.002;2023-04-24T07:04:21;10.27;;;5.00;;
25950;SDS011;13748;52.240;6.002;2023-04-24T07:06:49;6.57;;;4.73;;
25950;SDS011;13748;52.240;6.002;2023-04-24T07:09:15;7.87;;;4.70;;
25950;SDS011;13748;52.240;6.002;2023-04-24T07:11:43;7.60;;;4.70;;
25950;SDS011;13748;52.240;6.002;2023-04-24T07:14:11;7.37;;;5.10;;
25950;SDS011;13748;52.240;6.002;2023-04-24T07:16:38;7.50;;;5.10;;
25950;SDS011;13748;52.240;6.002;2023-04-24T07:19:05;6.37;;;4.73;;
25950;SDS011;13748;52.240;6.002;2023-04-24T07:21:33;6.50;;;4.80;;
25950;SDS011;13748;52.240;6.002;2023-04-24T07:23:59;7.17;;;5.10;;
25950;SDS011;13748;52.240;6.002;2023-04-24T07:26:28;7.43;;;5.50;;
25950;SDS011;13748;52.240;6.002;2023-04-24T07:28:57;6.40;;;4.67;;
25950;SDS011;13748;52.240;6.002;2023-04-24T07:31:24;5.67;;;4.20;;
25950;SDS011;13748;52.240;6.002;2023-04-24T07:33:51;4.83;;;3.70;;
25950;SDS011;13748;52.240;6.002;2023-04-24T07:36:18;2.90;;;2.60;;
25950;SDS011;13748;52.240;6.002;2023-04-24T07:38:45;3.67;;;2.67;;
25950;SDS011;13748;52.240;6.002;2023-04-24T07:41:13;2.90;;;2.60;;
25950;SDS011;13748;52.240;6.002;2023-04-24T07:43:40;4.30;;;2.70;;
25950;SDS011;13748;52.240;6.002;2023-04-24T07:46:08;4.07;;;3.17;;
25950;SDS011;13748;52.240;6.002;2023-04-24T07:48:35;7.67;;;3.53;;
25950;SDS011;13748;52.240;6.002;2023-04-24T07:51:02;5.73;;;3.90;;
25950;SDS011;13748;52.240;6.002;2023-04-24T07:53:29;8.97;;;4.00;;
25950;SDS011;13748;52.240;6.002;2023-04-24T07:55:56;6.10;;;4.13;;
25950;SDS011;13748;52.240;6.002;2023-04-24T07:58:23;10.73;;;6.50;;
25950;SDS011;13748;52.240;6.002;2023-04-24T08:00:50;8.07;;;5.30;;
25950;SDS011;13748;52.240;6.002;2023-04-24T08:03:17;7.73;;;5.20;;
25950;SDS011;13748;52.240;6.002;2023-04-24T08:05:46;8.33;;;5.57;;
25950;SDS011;13748;52.240;6.002;2023-04-24T08:08:13;12.20;;;6.83;;
25950;SDS011;13748;52.240;6.002;2023-04-24T08:10:40;11.30;;;7.17;;
25950;SDS011;13748;52.240;6.002;2023-04-24T08:13:06;12.70;;;8.97;;
25950;SDS011;13748;52.240;6.002;2023-04-24T08:15:33;17.80;;;9.67;;
25950;SDS011;13748;52.240;6.002;2023-04-24T08:18:00;17.27;;;10.17;;
25950;SDS011;13748;52.240;6.002;2023-04-24T08:20:27;17.33;;;11.10;;
25950;SDS011;13748;52.240;6.002;2023-04-24T08:22:54;21.73;;;12.20;;
25950;SDS011;13748;52.240;6.002;2023-04-24T08:25:21;15.73;;;10.90;;
25950;SDS011;13748;52.240;6.002;2023-04-24T08:27:49;19.40;;;12.43;;
25950;SDS011;13748;52.240;6.002;2023-04-24T08:30:16;19.37;;;12.33;;
25950;SDS011;13748;52.240;6.002;2023-04-24T08:32:43;22.83;;;12.43;;
25950;SDS011;13748;52.240;6.002;2023-04-24T08:35:10;22.03;;;12.20;;
25950;SDS011;13748;52.240;6.002;2023-04-24T08:37:37;24.00;;;13.70;;
25950;SDS011;13748;52.240;6.002;2023-04-24T08:40:06;24.20;;;11.93;;
25950;SDS011;13748;52.240;6.002;2023-04-24T08:42:38;21.43;;;12.30;;
25950;SDS011;13748;52.240;6.002;2023-04-24T08:45:08;20.87;;;11.97;;
25950;SDS011;13748;52.240;6.002;2023-04-24T08:47:35;20.77;;;12.50;;
25950;SDS011;13748;52.240;6.002;2023-04-24T08:50:05;20.77;;;12.90;;
25950;SDS011;13748;52.240;6.002;2023-04-24T08:52:33;18.27;;;11.37;;
25950;SDS011;13748;52.240;6.002;2023-04-24T08:55:01;21.63;;;12.07;;
25950;SDS011;13748;52.240;6.002;2023-04-24T08:57:28;24.33;;;12.10;;
25950;SDS011;13748;52.240;6.002;2023-04-24T08:59:57;17.40;;;11.73;;
25950;SDS011;13748;52.240;6.002;2023-04-24T09:02:25;22.50;;;11.20;;
25950;SDS011;13748;52.240;6.002;2023-04-24T09:04:52;22.87;;;11.27;;
25950;SDS011;13748;52.240;6.002;2023-04-24T09:07:22;22.23;;;11.37;;
25950;SDS011;13748;52.240;6.002;2023-04-24T09:09:52;18.23;;;11.03;;
25950;SDS011;13748;52.240;6.002;2023-04-24T09:12:19;19.67;;;10.77;;
25950;SDS011;13748;52.240;6.002;2023-04-24T09:14:46;23.93;;;10.70;;
25950;SDS011;13748;52.240;6.002;2023-04-24T09:17:16;21.67;;;11.20;;
25950;SDS011;13748;52.240;6.002;2023-04-24T09:19:42;16.87;;;9.47;;
25950;SDS011;13748;52.240;6.002;2023-04-24T09:22:09;15.17;;;8.70;;
25950;SDS011;13748;52.240;6.002;2023-04-24T09:24:37;14.03;;;7.60;;
25950;SDS011;13748;52.240;6.002;2023-04-24T09:27:05;19.13;;;8.37;;
25950;SDS011;13748;52.240;6.002;2023-04-24T09:29:35;15.40;;;6.50;;
25950;SDS011;13748;52.240;6.002;2023-04-24T09:32:18;13.67;;;5.90;;
25950;SDS011;13748;52.240;6.002;2023-04-24T09:34:47;10.47;;;5.03;;
25950;SDS011;13748;52.240;6.002;2023-04-24T09:37:27;10.93;;;5.10;;
25950;SDS011;13748;52.240;6.002;2023-04-24T09:40:11;9.53;;;5.23;;
25950;SDS011;13748;52.240;6.002;2023-04-24T09:42:42;11.53;;;4.70;;
25950;SDS011;13748;52.240;6.002;2023-04-24T09:45:11;13.07;;;5.27;;
25950;SDS011;13748;52.240;6.002;2023-04-24T09:47:40;12.63;;;5.80;;
25950;SDS011;13748;52.240;6.002;2023-04-24T09:52:46;13.07;;;5.60;;
25950;SDS011;13748;52.240;6.002;2023-04-24T09:55:21;17.73;;;5.43;;
25950;SDS011;13748;52.240;6.002;2023-04-24T09:57:52;16.40;;;4.93;;
25950;SDS011;13748;52.240;6.002;2023-04-24T10:00:21;15.77;;;5.60;;
25950;SDS011;13748;52.240;6.002;2023-04-24T10:02:49;17.37;;;5.40;;
25950;SDS011;13748;52.240;6.002;2023-04-24T10:05:18;13.60;;;4.70;;
25950;SDS011;13748;52.240;6.002;2023-04-24T10:07:44;15.23;;;5.37;;
25950;SDS011;13748;52.240;6.002;2023-04-24T10:10:15;12.93;;;4.57;;
25950;SDS011;13748;52.240;6.002;2023-04-24T10:12:42;14.07;;;4.67;;
25950;SDS011;13748;52.240;6.002;2023-04-24T10:15:10;18.37;;;5.57;;
25950;SDS011;13748;52.240;6.002;2023-04-24T10:17:38;17.00;;;4.90;;
25950;SDS011;13748;52.240;6.002;2023-04-24T10:20:06;17.37;;;4.27;;
25950;SDS011;13748;52.240;6.002;2023-04-24T10:22:34;12.00;;;4.47;;
25950;SDS011;13748;52.240;6.002;2023-04-24T10:25:03;17.87;;;4.53;;
25950;SDS011;13748;52.240;6.002;2023-04-24T10:27:31;14.17;;;5.17;;
25950;SDS011;13748;52.240;6.002;2023-04-24T10:29:58;18.43;;;4.67;;
25950;SDS011;13748;52.240;6.002;2023-04-24T10:32:26;17.13;;;4.13;;
25950;SDS011;13748;52.240;6.002;2023-04-24T10:34:53;13.10;;;3.73;;
25950;SDS011;13748;52.240;6.002;2023-04-24T10:37:23;7.27;;;3.40;;
25950;SDS011;13748;52.240;6.002;2023-04-24T10:39:51;12.50;;;3.70;;
25950;SDS011;13748;52.240;6.002;2023-04-24T10:42:20;8.03;;;2.87;;
25950;SDS011;13748;52.240;6.002;2023-04-24T10:44:50;11.60;;;3.60;;
25950;SDS011;13748;52.240;6.002;2023-04-24T10:47:17;6.67;;;3.20;;
25950;SDS011;13748;52.240;6.002;2023-04-24T10:49:44;10.03;;;3.40;;
25950;SDS011;13748;52.240;6.002;2023-04-24T10:52:12;10.80;;;3.43;;
25950;SDS011;13748;52.240;6.002;2023-04-24T10:54:44;7.00;;;2.80;;
25950;SDS011;13748;52.240;6.002;2023-04-24T10:59:49;9.63;;;3.10;;
25950;SDS011;13748;52.240;6.002;2023-04-24T11:02:18;13.93;;;3.40;;
25950;SDS011;13748;52.240;6.002;2023-04-24T11:05:04;10.07;;;3.47;;
25950;SDS011;13748;52.240;6.002;2023-04-24T11:10:47;9.43;;;3.17;;
25950;SDS011;13748;52.240;6.002;2023-04-24T11:19:03;9.33;;;3.30;;
25950;SDS011;13748;52.240;6.002;2023-04-24T11:21:43;10.43;;;3.90;;
25950;SDS011;13748;52.240;6.002;2023-04-24T11:32:25;9.80;;;3.27;;
25950;SDS011;13748;52.240;6.002;2023-04-24T11:37:23;11.93;;;3.60;;
25950;SDS011;13748;52.240;6.002;2023-04-24T11:39:56;9.40;;;3.20;;
25950;SDS011;13748;52.240;6.002;2023-04-24T11:42:24;7.27;;;2.67;;
25950;SDS011;13748;52.240;6.002;2023-04-24T11:44:54;10.60;;;3.20;;
25950;SDS011;13748;52.240;6.002;2023-04-24T11:47:31;7.67;;;3.20;;
25950;SDS011;13748;52.240;6.002;2023-04-24T11:50:00;7.80;;;3.10;;
25950;SDS011;13748;52.240;6.002;2023-04-24T11:52:29;5.67;;;2.87;;
25950;SDS011;13748;52.240;6.002;2023-04-24T11:54:58;7.93;;;2.80;;
25950;SDS011;13748;52.240;6.002;2023-04-24T11:57:26;7.00;;;2.30;;
25950;SDS011;13748;52.240;6.002;2023-04-24T12:00:02;2.77;;;2.10;;
25950;SDS011;13748;52.240;6.002;2023-04-24T12:02:32;5.93;;;2.23;;
25950;SDS011;13748;52.240;6.002;2023-04-24T12:05:05;7.13;;;1.87;;
25950;SDS011;13748;52.240;6.002;2023-04-24T12:07:39;4.17;;;1.80;;
25950;SDS011;13748;52.240;6.002;2023-04-24T12:10:09;4.33;;;1.53;;
25950;SDS011;13748;52.240;6.002;2023-04-24T12:12:35;2.57;;;1.67;;
25950;SDS011;13748;52.240;6.002;2023-04-24T12:15:06;2.53;;;1.47;;
25950;SDS011;13748;52.240;6.002;2023-04-24T12:17:34;2.67;;;1.50;;
25950;SDS011;13748;52.240;6.002;2023-04-24T12:20:04;6.37;;;1.43;;
25950;SDS011;13748;52.240;6.002;2023-04-24T12:22:52;3.23;;;1.30;;
25950;SDS011;13748;52.240;6.002;2023-04-24T12:25:31;2.23;;;1.20;;
25950;SDS011;13748;52.240;6.002;2023-04-24T12:30:33;2.13;;;1.47;;
25950;SDS011;13748;52.240;6.002;2023-04-24T12:33:02;2.77;;;1.33;;
25950;SDS011;13748;52.240;6.002;2023-04-24T12:35:30;2.17;;;1.40;;
25950;SDS011;13748;52.240;6.002;2023-04-24T12:38:06;1.93;;;1.17;;
25950;SDS011;13748;52.240;6.002;2023-04-24T12:40:34;3.30;;;1.43;;
25950;SDS011;13748;52.240;6.002;2023-04-24T12:43:01;2.50;;;1.53;;
25950;SDS011;13748;52.240;6.002;2023-04-24T12:45:28;4.97;;;1.53;;
25950;SDS011;13748;52.240;6.002;2023-04-24T12:47:55;3.53;;;1.67;;
25950;SDS011;13748;52.240;6.002;2023-04-24T12:50:22;5.07;;;2.23;;
25950;SDS011;13748;52.240;6.002;2023-04-24T12:52:49;2.20;;;1.20;;
25950;SDS011;13748;52.240;6.002;2023-04-24T12:55:16;5.13;;;1.70;;
25950;SDS011;13748;52.240;6.002;2023-04-24T12:57:43;3.07;;;1.00;;
25950;SDS011;13748;52.240;6.002;2023-04-24T13:00:10;2.47;;;1.43;;
25950;SDS011;13748;52.240;6.002;2023-04-24T13:02:37;4.73;;;1.37;;
25950;SDS011;13748;52.240;6.002;2023-04-24T13:05:05;7.23;;;1.57;;
25950;SDS011;13748;52.240;6.002;2023-04-24T13:07:32;7.63;;;1.80;;
25950;SDS011;13748;52.240;6.002;2023-04-24T13:09:59;5.40;;;1.60;;
25950;SDS011;13748;52.240;6.002;2023-04-24T13:12:26;4.23;;;1.70;;
25950;SDS011;13748;52.240;6.002;2023-04-24T13:14:53;4.73;;;1.40;;
25950;SDS011;13748;52.240;6.002;2023-04-24T13:17:20;5.00;;;1.77;;
25950;SDS011;13748;52.240;6.002;2023-04-24T13:19:48;4.30;;;1.50;;
25950;SDS011;13748;52.240;6.002;2023-04-24T13:22:17;4.57;;;1.30;;
25950;SDS011;13748;52.240;6.002;2023-04-24T13:24:50;3.50;;;1.37;;
25950;SDS011;13748;52.240;6.002;2023-04-24T13:29:56;6.50;;;2.43;;
25950;SDS011;13748;52.240;6.002;2023-04-24T13:35:31;9.60;;;2.40;;
25950;SDS011;13748;52.240;6.002;2023-04-24T13:38:11;5.87;;;1.83;;
25950;SDS011;13748;52.240;6.002;2023-04-24T13:40:58;5.80;;;1.80;;
25950;SDS011;13748;52.240;6.002;2023-04-24T13:43:51;4.43;;;1.80;;
25950;SDS011;13748;52.240;6.002;2023-04-24T13:46:24;6.50;;;1.77;;
25950;SDS011;13748;52.240;6.002;2023-04-24T13:48:59;3.73;;;1.80;;
25950;SDS011;13748;52.240;6.002;2023-04-24T13:51:26;7.63;;;2.13;;
25950;SDS011;13748;52.240;6.002;2023-04-24T13:53:53;5.60;;;1.70;;
25950;SDS011;13748;52.240;6.002;2023-04-24T13:56:21;5.07;;;2.23;;
25950;SDS011;13748;52.240;6.002;2023-04-24T13:58:48;11.23;;;3.03;;
25950;SDS011;13748;52.240;6.002;2023-04-24T14:01:15;6.60;;;2.57;;
25950;SDS011;13748;52.240;6.002;2023-04-24T14:03:42;8.37;;;3.00;;
25950;SDS011;13748;52.240;6.002;2023-04-24T14:06:12;9.10;;;2.97;;
25950;SDS011;13748;52.240;6.002;2023-04-24T14:08:39;9.07;;;2.60;;
25950;SDS011;13748;52.240;6.002;2023-04-24T14:11:06;10.27;;;2.80;;
25950;SDS011;13748;52.240;6.002;2023-04-24T14:13:33;10.90;;;3.30;;
25950;SDS011;13748;52.240;6.002;2023-04-24T14:16:02;10.03;;;3.07;;
25950;SDS011;13748;52.240;6.002;2023-04-24T14:18:29;8.70;;;2.67;;
25950;SDS011;13748;52.240;6.002;2023-04-24T14:20:56;10.43;;;3.27;;
25950;SDS011;13748;52.240;6.002;2023-04-24T14:23:23;13.90;;;3.90;;
25950;SDS011;13748;52.240;6.002;2023-04-24T14:25:50;12.63;;;3.00;;
25950;SDS011;13748;52.240;6.002;2023-04-24T14:28:19;15.73;;;3.43;;
25950;SDS011;13748;52.240;6.002;2023-04-24T14:30:46;13.17;;;3.20;;
25950;SDS011;13748;52.240;6.002;2023-04-24T14:33:14;7.83;;;2.70;;
25950;SDS011;13748;52.240;6.002;2023-04-24T14:35:41;14.83;;;3.50;;
25950;SDS011;13748;52.240;6.002;2023-04-24T14:38:09;14.47;;;4.50;;
25950;SDS011;13748;52.240;6.002;2023-04-24T14:40:36;15.63;;;3.47;;
25950;SDS011;13748;52.240;6.002;2023-04-24T14:43:23;11.17;;;3.37;;
25950;SDS011;13748;52.240;6.002;2023-04-24T14:45:50;12.57;;;3.27;;
25950;SDS011;13748;52.240;6.002;2023-04-24T14:48:17;16.37;;;3.37;;
25950;SDS011;13748;52.240;6.002;2023-04-24T14:50:45;13.40;;;4.27;;
25950;SDS011;13748;52.240;6.002;2023-04-24T14:53:12;10.20;;;2.93;;
25950;SDS011;13748;52.240;6.002;2023-04-24T14:55:39;6.17;;;2.47;;
25950;SDS011;13748;52.240;6.002;2023-04-24T14:58:06;9.27;;;2.67;;
25950;SDS011;13748;52.240;6.002;2023-04-24T15:00:32;7.53;;;2.40;;
25950;SDS011;13748;52.240;6.002;2023-04-24T15:03:00;7.47;;;3.20;;
25950;SDS011;13748;52.240;6.002;2023-04-24T15:05:28;9.73;;;2.80;;
25950;SDS011;13748;52.240;6.002;2023-04-24T15:07:55;9.47;;;2.27;;
25950;SDS011;13748;52.240;6.002;2023-04-24T15:10:22;10.43;;;2.50;;
25950;SDS011;13748;52.240;6.002;2023-04-24T15:12:49;7.10;;;2.70;;
25950;SDS011;13748;52.240;6.002;2023-04-24T15:15:16;8.57;;;2.70;;
25950;SDS011;13748;52.240;6.002;2023-04-24T15:17:43;9.27;;;2.87;;
25950;SDS011;13748;52.240;6.002;2023-04-24T15:20:10;10.27;;;2.90;;
25950;SDS011;13748;52.240;6.002;2023-04-24T15:22:37;10.37;;;2.73;;